Time;durP1;ratioP1;P1;durP2;ratioP2;P2;SDS_P1;SDS_P2;PMS_P1;PMS_P2;Temp;Humidity;BMP_temperature;BMP_pressure;BME280_temperature;BME280_humidity;BME280_pressure;Samples;Min_cycle;Max_cycle;Signal;HPM_P1;HPM_P2
2023/07/01 00:01:27;;;;;;;6.70;5.05;;;512.10;2380.80;;;;;;5086079;28;20389;-71
2023/07/01 00:03:53;;;;;;;6.95;5.30;;;512.10;2380.80;;;;;;5084504;28;20392;-72
2023/07/01 00:06:19;;;;;;;6.25;4.82;;;512.20;2380.80;;;;;;5083252;28;20028;-71
2023/07/01 00:08:45;;;;;;;9.63;5.40;;;512.40;2380.80;;;;;;5075939;28;20023;-71
2023/07/01 00:11:11;;;;;;;9.52;5.38;;;512.20;2380.80;;;;;;5082875;28;20466;-71
2023/07/01 00:13:36;;;;;;;6.93;5.35;;;512.20;2380.80;;;;;;5083632;28;20355;-72
2023/07/01 00:16:04;;;;;;;12.68;5.00;;;512.10;2380.80;;;;;;5078402;28;20024;-70
2023/07/01 00:18:30;;;;;;;7.22;5.68;;;512.00;2380.80;;;;;;5079365;28;20016;-72
2023/07/01 00:20:56;;;;;;;8.57;5.82;;;487.30;2380.80;;;;;;5081092;28;20203;-70
2023/07/01 00:23:22;;;;;;;9.07;5.35;;;487.30;2380.80;;;;;;5077320;28;20418;-72
2023/07/01 00:25:48;;;;;;;8.57;5.70;;;487.30;2380.80;;;;;;5080525;28;20028;-71
2023/07/01 00:28:14;;;;;;;6.65;5.60;;;487.30;2380.80;;;;;;5083251;28;20081;-71
2023/07/01 00:30:39;;;;;;;8.20;5.50;;;487.30;2380.80;;;;;;5078895;28;20078;-71
2023/07/01 00:33:05;;;;;;;8.05;5.70;;;487.20;2380.80;;;;;;5083537;28;20055;-72
2023/07/01 00:35:32;;;;;;;9.52;6.13;;;487.20;2380.80;;;;;;5078389;28;20016;-71
2023/07/01 00:37:58;;;;;;;9.15;5.50;;;487.10;2380.80;;;;;;5086663;28;20066;-73
2023/07/01 00:40:24;;;;;;;9.50;6.00;;;487.00;2380.80;;;;;;5077126;28;20031;-70
2023/07/01 00:42:50;;;;;;;8.85;5.90;;;487.00;2380.80;;;;;;5074532;28;20012;-72
2023/07/01 00:45:15;;;;;;;9.82;5.80;;;487.10;2380.80;;;;;;5076506;28;20021;-71
2023/07/01 00:47:41;;;;;;;8.57;5.75;;;487.10;2380.80;;;;;;5077495;28;20020;-71
2023/07/01 00:50:14;;;;;;;7.43;6.03;;;487.00;2380.80;;;;;;5078452;28;20431;-72
2023/07/01 00:52:41;;;;;;;9.38;6.28;;;487.00;2380.80;;;;;;5076506;28;20035;-71
2023/07/01 00:55:08;;;;;;;11.52;5.93;;;487.00;2380.80;;;;;;5079972;28;20047;-71
2023/07/01 00:57:34;;;;;;;11.13;5.47;;;487.00;2380.80;;;;;;5078120;28;20028;-71
2023/07/01 01:00:11;;;;;;;10.57;5.70;;;486.90;2380.80;;;;;;5076016;28;20036;-72
2023/07/01 01:02:56;;;;;;;11.27;6.53;;;487.00;2380.80;;;;;;5075092;28;20042;-71
2023/07/01 01:05:32;;;;;;;8.82;6.15;;;486.90;2380.80;;;;;;5075864;28;20060;-72
2023/07/01 01:08:11;;;;;;;9.45;6.50;;;487.00;2380.80;;;;;;5077133;28;20031;-71
2023/07/01 01:10:41;;;;;;;8.57;6.05;;;486.90;2380.80;;;;;;5076584;28;20110;-72
2023/07/01 01:13:08;;;;;;;9.80;6.30;;;486.80;2380.80;;;;;;5074185;28;20505;-71
2023/07/01 01:15:34;;;;;;;10.40;7.15;;;486.80;2380.80;;;;;;5078896;28;20100;-71
2023/07/01 01:18:04;;;;;;;8.23;6.60;;;486.80;2380.80;;;;;;5079536;28;20484;-72
2023/07/01 01:20:33;;;;;;;7.55;5.85;;;486.80;2380.80;;;;;;5083668;28;20023;-71
2023/07/01 01:23:02;;;;;;;15.27;6.53;;;486.80;2380.80;;;;;;5076946;28;20028;-71
2023/07/01 01:25:45;;;;;;;10.15;6.43;;;486.80;2380.80;;;;;;5073047;28;20438;-73
2023/07/01 01:28:12;;;;;;;10.13;7.55;;;486.80;2380.80;;;;;;5073432;28;20486;-71
2023/07/01 01:30:38;;;;;;;11.38;7.70;;;486.90;2380.80;;;;;;5053170;28;20032;-71
2023/07/01 01:33:05;;;;;;;12.02;7.25;;;486.90;2380.80;;;;;;5053422;28;20033;-71
2023/07/01 01:35:32;;;;;;;14.82;7.60;;;487.00;2380.80;;;;;;5053245;28;20104;-72
2023/07/01 01:38:07;;;;;;;11.45;7.00;;;487.00;2380.80;;;;;;5053087;28;20025;-71
2023/07/01 01:41:07;;;;;;;10.60;6.70;;;487.20;2380.80;;;;;;5053272;28;20029;-72
2023/07/01 01:43:45;;;;;;;11.25;7.68;;;487.10;2380.80;;;;;;5050678;28;20048;-71
2023/07/01 01:46:13;;;;;;;11.77;7.65;;;487.10;2380.80;;;;;;5051203;28;20108;-73
2023/07/01 01:48:39;;;;;;;10.43;7.15;;;487.00;2380.80;;;;;;5050953;28;20052;-73
2023/07/01 01:51:07;;;;;;;10.13;6.95;;;486.80;2380.80;;;;;;5050794;28;20119;-74
2023/07/01 01:53:34;;;;;;;9.38;7.18;;;486.80;2380.80;;;;;;5050960;28;20037;-73
2023/07/01 01:56:01;;;;;;;12.35;7.03;;;486.70;2380.80;;;;;;5050697;28;20505;-73
2023/07/01 01:58:27;;;;;;;13.30;7.10;;;486.70;2380.80;;;;;;5050934;28;20059;-73
2023/07/01 02:00:53;;;;;;;14.02;8.13;;;486.70;2380.80;;;;;;5051068;28;20485;-73
2023/07/01 02:03:18;;;;;;;12.48;7.57;;;486.70;2380.80;;;;;;5050820;28;20029;-73
2023/07/01 02:05:44;;;;;;;10.73;8.30;;;486.70;2380.80;;;;;;5050655;28;20040;-73
2023/07/01 02:08:10;;;;;;;13.57;8.40;;;486.70;2380.80;;;;;;5050391;28;20532;-71
2023/07/01 02:10:35;;;;;;;10.20;7.30;;;486.70;2380.80;;;;;;5050513;28;20033;-75
2023/07/01 02:13:02;;;;;;;10.18;7.10;;;486.70;2380.80;;;;;;5034162;28;20522;-76
2023/07/01 02:15:28;;;;;;;10.57;7.68;;;486.50;2380.80;;;;;;5050747;28;20035;-73
2023/07/01 02:17:54;;;;;;;13.57;7.13;;;486.50;2380.80;;;;;;5050719;28;20033;-74
2023/07/01 02:20:20;;;;;;;10.02;7.22;;;486.50;2380.80;;;;;;5052107;28;20534;-73
2023/07/01 02:22:45;;;;;;;8.65;7.05;;;486.50;2380.80;;;;;;5052564;28;20025;-73
2023/07/01 02:25:11;;;;;;;10.70;7.70;;;486.50;2380.80;;;;;;5052408;28;20479;-73
2023/07/01 02:27:37;;;;;;;10.40;7.72;;;486.50;2380.80;;;;;;5052693;28;20036;-73
2023/07/01 02:30:03;;;;;;;13.32;7.55;;;486.50;2380.80;;;;;;5052813;28;20363;-71
2023/07/01 02:32:29;;;;;;;12.05;7.55;;;486.60;2380.80;;;;;;5052578;28;20155;-71
2023/07/01 02:34:55;;;;;;;11.25;7.70;;;486.50;2380.80;;;;;;5052714;28;20021;-73
2023/07/01 02:37:20;;;;;;;11.23;7.15;;;486.50;2380.80;;;;;;5052644;28;20028;-73
2023/07/01 02:39:47;;;;;;;11.55;7.82;;;486.40;2380.80;;;;;;5052619;28;20025;-73
2023/07/01 02:42:15;;;;;;;13.82;7.90;;;486.40;2380.80;;;;;;5052489;28;20109;-72
2023/07/01 02:44:42;;;;;;;12.23;7.10;;;461.70;2380.80;;;;;;5052482;28;20022;-74
2023/07/01 02:47:08;;;;;;;10.20;7.50;;;461.70;2380.80;;;;;;5052555;28;20100;-71
2023/07/01 02:49:33;;;;;;;12.70;7.70;;;461.70;2380.80;;;;;;5052438;28;20024;-71
2023/07/01 02:51:59;;;;;;;17.60;9.18;;;461.70;2380.80;;;;;;5052313;28;20458;-74
2023/07/01 02:54:25;;;;;;;11.98;8.15;;;461.70;2380.80;;;;;;5052246;28;20091;-74
2023/07/01 02:56:50;;;;;;;17.08;8.52;;;461.70;2380.80;;;;;;5069463;28;20430;-72
2023/07/01 02:59:16;;;;;;;14.68;8.73;;;486.40;2380.80;;;;;;5056138;28;20056;-73
2023/07/01 03:01:44;;;;;;;13.43;8.23;;;486.50;2380.80;;;;;;5069473;28;20060;-73
2023/07/01 03:04:11;;;;;;;12.98;8.13;;;486.70;2380.80;;;;;;5074680;28;20397;-76
2023/07/01 03:06:37;;;;;;;10.98;7.38;;;486.50;2380.80;;;;;;5075976;28;20031;-73
2023/07/01 03:09:07;;;;;;;12.20;9.23;;;486.50;2380.80;;;;;;5075900;28;20013;-73
2023/07/01 03:11:35;;;;;;;12.65;8.10;;;486.60;2380.80;;;;;;5075713;28;20032;-73
2023/07/01 03:14:01;;;;;;;14.57;8.68;;;486.50;2380.80;;;;;;5075860;28;20039;-73
2023/07/01 03:16:27;;;;;;;10.57;7.50;;;486.50;2380.80;;;;;;5075771;28;20048;-73
2023/07/01 03:18:53;;;;;;;9.98;7.63;;;486.50;2380.80;;;;;;5075789;28;20025;-73
2023/07/01 03:21:18;;;;;;;11.40;8.20;;;486.60;2380.80;;;;;;5075660;28;20032;-74
2023/07/01 03:23:44;;;;;;;16.92;8.57;;;486.60;2380.80;;;;;;5075521;28;20017;-76
2023/07/01 03:26:10;;;;;;;17.42;7.47;;;486.70;2380.80;;;;;;5075524;28;20030;-73
2023/07/01 03:28:35;;;;;;;11.88;7.43;;;486.80;2380.80;;;;;;5075765;28;20021;-72
2023/07/01 03:31:01;;;;;;;12.85;7.82;;;486.70;2380.80;;;;;;5075434;28;20021;-72
2023/07/01 03:33:26;;;;;;;10.45;7.88;;;486.70;2380.80;;;;;;5075482;28;20070;-73
2023/07/01 03:35:52;;;;;;;10.52;7.57;;;486.70;2380.80;;;;;;5075728;28;20029;-72
2023/07/01 03:38:18;;;;;;;11.35;7.63;;;486.80;2380.80;;;;;;5075321;28;20503;-73
2023/07/01 03:40:43;;;;;;;12.77;7.00;;;486.90;2380.80;;;;;;5073958;28;20029;-73
2023/07/01 03:43:09;;;;;;;13.07;7.10;;;486.80;2380.80;;;;;;5075338;28;20021;-73
2023/07/01 03:45:35;;;;;;;10.55;8.20;;;486.70;2380.80;;;;;;5075210;28;20020;-73
2023/07/01 03:48:00;;;;;;;10.35;7.65;;;486.70;2380.80;;;;;;5075206;28;20040;-75
2023/07/01 03:50:26;;;;;;;10.25;7.88;;;486.90;2380.80;;;;;;5075067;28;20104;-74
2023/07/01 03:52:52;;;;;;;17.58;7.95;;;486.90;2380.80;;;;;;5074894;28;20051;-73
2023/07/01 03:55:18;;;;;;;11.00;7.55;;;486.90;2380.80;;;;;;5074841;28;20040;-73
2023/07/01 03:57:43;;;;;;;13.63;8.10;;;487.10;2380.80;;;;;;5074785;28;20036;-74
2023/07/01 04:00:17;;;;;;;10.98;8.15;;;487.20;2380.80;;;;;;5074989;28;20028;-73
2023/07/01 04:02:52;;;;;;;10.93;7.78;;;487.30;2380.80;;;;;;5075089;28;20041;-72
2023/07/01 04:05:18;;;;;;;11.73;7.78;;;512.00;2380.80;;;;;;5074927;28;20020;-73
2023/07/01 04:07:46;;;;;;;10.63;7.75;;;512.10;2380.80;;;;;;5074309;28;20030;-72
2023/07/01 04:10:12;;;;;;;10.75;7.63;;;512.10;2380.80;;;;;;5074904;28;20111;-73
2023/07/01 04:12:40;;;;;;;11.68;8.35;;;512.20;2380.80;;;;;;5074771;28;20047;-74
2023/07/01 04:15:09;;;;;;;11.65;8.20;;;512.30;2380.80;;;;;;5074712;28;20100;-74
2023/07/01 04:17:37;;;;;;;13.02;8.43;;;512.40;2380.80;;;;;;5074683;28;20385;-73
2023/07/01 04:20:04;;;;;;;11.65;9.30;;;512.40;2380.80;;;;;;5074522;28;20488;-74
2023/07/01 04:22:30;;;;;;;9.38;8.18;;;512.50;2380.80;;;;;;5074536;28;20059;-74
2023/07/01 04:24:56;;;;;;;16.17;9.80;;;512.60;2380.80;;;;;;5074330;28;20052;-74
2023/07/01 04:27:21;;;;;;;10.60;9.35;;;512.70;2380.80;;;;;;5074320;28;20032;-72
2023/07/01 04:29:47;;;;;;;13.50;9.63;;;512.90;2380.80;;;;;;5074493;28;20025;-73
2023/07/01 04:32:13;;;;;;;17.90;9.43;;;512.90;2380.80;;;;;;5072820;28;20131;-73
2023/07/01 04:34:38;;;;;;;16.98;9.55;;;537.60;2406.40;;;;;;5074488;28;20031;-73
2023/07/01 04:37:04;;;;;;;10.70;8.52;;;537.60;2406.40;;;;;;5076119;28;20031;-73
2023/07/01 04:39:29;;;;;;;12.43;9.38;;;537.70;2406.40;;;;;;5078805;28;20024;-72
2023/07/01 04:41:55;;;;;;;11.10;9.00;;;537.80;2406.40;;;;;;5082652;28;20024;-73
2023/07/01 04:44:24;;;;;;;18.65;10.68;;;537.90;2406.40;;;;;;5074339;28;20056;-72
2023/07/01 04:46:50;;;;;;;13.55;9.55;;;537.90;2406.40;;;;;;5081221;28;20016;-73
2023/07/01 04:49:16;;;;;;;11.40;9.30;;;537.90;2406.40;;;;;;5078351;28;20108;-73
2023/07/01 04:51:42;;;;;;;13.23;9.35;;;537.90;2406.40;;;;;;5080168;28;20111;-73
2023/07/01 04:54:08;;;;;;;12.93;9.30;;;537.90;2406.40;;;;;;5077729;28;20028;-72
2023/07/01 04:56:35;;;;;;;10.20;8.50;;;537.90;2406.40;;;;;;5076308;28;20383;-72
2023/07/01 04:59:00;;;;;;;10.98;8.57;;;537.90;2406.40;;;;;;5076318;28;20025;-73
2023/07/01 05:01:26;;;;;;;12.80;9.35;;;538.00;2406.40;;;;;;5076347;28;20370;-72
2023/07/01 05:03:52;;;;;;;12.98;8.45;;;538.00;2406.40;;;;;;5079148;28;20060;-73
2023/07/01 05:06:18;;;;;;;12.45;9.65;;;538.10;2406.40;;;;;;5077583;28;20024;-72
2023/07/01 05:08:44;;;;;;;18.65;9.43;;;538.20;2406.40;;;;;;5087147;28;20020;-73
2023/07/01 05:11:10;;;;;;;11.88;10.05;;;538.20;2406.40;;;;;;5074115;28;20080;-73
2023/07/01 05:13:36;;;;;;;10.52;8.38;;;538.20;2406.40;;;;;;5077937;28;20462;-73
2023/07/01 05:16:02;;;;;;;14.25;9.55;;;538.30;2406.40;;;;;;5076172;28;20031;-72
2023/07/01 05:18:27;;;;;;;10.63;9.45;;;538.50;2406.40;;;;;;5079105;28;20020;-73
2023/07/01 05:20:53;;;;;;;12.40;9.10;;;563.30;2432.00;;;;;;5078182;28;20058;-72
2023/07/01 05:23:19;;;;;;;17.10;9.68;;;563.40;2432.00;;;;;;5078129;28;20469;-73
2023/07/01 05:25:44;;;;;;;11.00;9.38;;;563.40;2432.00;;;;;;5086513;28;20020;-73
2023/07/01 05:28:10;;;;;;;12.98;9.40;;;563.40;2432.00;;;;;;5076476;28;20038;-73
2023/07/01 05:30:36;;;;;;;16.58;10.20;;;563.50;2432.00;;;;;;5076953;28;20024;-73
2023/07/01 05:33:03;;;;;;;12.05;9.10;;;563.60;2432.00;;;;;;5075651;28;20028;-73
2023/07/01 05:35:28;;;;;;;13.20;9.88;;;563.60;2432.00;;;;;;5077395;28;20021;-72
2023/07/01 05:37:54;;;;;;;18.52;9.77;;;563.60;2432.00;;;;;;5080850;28;20393;-72
2023/07/01 05:40:20;;;;;;;19.35;10.38;;;563.80;2432.00;;;;;;5076335;28;20058;-72
2023/07/01 05:42:45;;;;;;;12.43;9.05;;;564.00;2432.00;;;;;;5075483;28;20020;-72
2023/07/01 05:45:11;;;;;;;14.18;10.00;;;564.10;2432.00;;;;;;5076440;28;20530;-72
2023/07/01 05:47:37;;;;;;;19.23;9.48;;;588.80;2432.00;;;;;;5080561;28;20412;-72
2023/07/01 05:50:03;;;;;;;15.60;9.85;;;589.00;2432.00;;;;;;5076205;28;20019;-73
2023/07/01 05:52:29;;;;;;;14.60;10.18;;;589.00;2432.00;;;;;;5074222;28;20118;-74
2023/07/01 05:54:55;;;;;;;15.38;9.52;;;589.10;2432.00;;;;;;5081197;28;20434;-72
2023/07/01 05:57:21;;;;;;;14.55;9.52;;;589.20;2432.00;;;;;;5078120;28;20124;-72
2023/07/01 05:59:46;;;;;;;16.05;11.30;;;589.30;2432.00;;;;;;5079166;28;20110;-72
2023/07/01 06:02:12;;;;;;;12.10;10.05;;;589.50;2432.00;;;;;;5078686;28;20056;-72
2023/07/01 06:04:38;;;;;;;11.55;10.35;;;589.70;2432.00;;;;;;5084923;28;20374;-72
2023/07/01 06:07:04;;;;;;;13.02;11.07;;;589.70;2432.00;;;;;;5083501;28;20026;-72
2023/07/01 06:09:29;;;;;;;15.32;10.98;;;614.40;2432.00;;;;;;5079198;28;20055;-72
2023/07/01 06:11:55;;;;;;;13.68;10.30;;;614.50;2432.00;;;;;;5074937;28;20040;-73
2023/07/01 06:14:21;;;;;;;15.05;11.55;;;614.50;2432.00;;;;;;5074927;28;20025;-71
2023/07/01 06:16:46;;;;;;;14.23;10.88;;;614.60;2432.00;;;;;;5076304;28;20047;-75
2023/07/01 06:19:12;;;;;;;16.65;10.93;;;614.70;2432.00;;;;;;5069016;28;20052;-73
2023/07/01 06:21:38;;;;;;;14.82;10.68;;;614.80;2432.00;;;;;;5083156;28;20028;-73
2023/07/01 06:24:04;;;;;;;14.77;10.75;;;614.90;2432.00;;;;;;5074235;28;20021;-76
2023/07/01 06:26:29;;;;;;;11.93;10.73;;;615.00;2432.00;;;;;;5076844;28;20112;-74
2023/07/01 06:28:55;;;;;;;14.68;10.55;;;615.00;2432.00;;;;;;5076144;28;20100;-74
2023/07/01 06:31:21;;;;;;;14.27;10.73;;;615.00;2432.00;;;;;;5083981;28;20087;-73
2023/07/01 06:33:46;;;;;;;15.05;9.80;;;615.20;2432.00;;;;;;5084881;28;20028;-74
2023/07/01 06:36:17;;;;;;;12.70;10.40;;;615.20;2432.00;;;;;;5078410;28;20104;-73
2023/07/01 06:38:43;;;;;;;16.15;9.98;;;615.30;2432.00;;;;;;5080028;28;20028;-73
2023/07/01 06:41:09;;;;;;;15.57;10.55;;;640.00;2432.00;;;;;;5080763;28;20032;-75
2023/07/01 06:43:39;;;;;;;12.88;10.48;;;640.10;2432.00;;;;;;5082025;28;20020;-74
2023/07/01 06:46:06;;;;;;;13.80;11.38;;;640.10;2432.00;;;;;;5084417;28;20055;-75
2023/07/01 06:48:32;;;;;;;12.32;10.30;;;640.50;2432.00;;;;;;5078790;28;20021;-74
2023/07/01 06:50:58;;;;;;;17.02;11.98;;;640.50;2432.00;;;;;;5080342;28;20992;-72
2023/07/01 06:53:23;;;;;;;14.27;10.90;;;640.70;2432.00;;;;;;5081915;28;20030;-72
2023/07/01 06:55:49;;;;;;;13.93;10.52;;;640.70;2432.00;;;;;;5078090;28;20055;-73
2023/07/01 06:58:15;;;;;;;16.63;10.73;;;640.90;2432.00;;;;;;5079782;28;20020;-74
2023/07/01 07:00:41;;;;;;;13.85;10.18;;;665.60;2432.00;;;;;;5077543;28;20100;-75
2023/07/01 07:03:07;;;;;;;12.55;10.05;;;665.60;2432.00;;;;;;5082104;28;20021;-75
2023/07/01 07:05:33;;;;;;;12.18;10.32;;;665.70;2432.00;;;;;;5087347;28;20017;-75
2023/07/01 07:07:59;;;;;;;16.00;10.82;;;665.80;2432.00;;;;;;5086924;28;20027;-75
2023/07/01 07:10:25;;;;;;;14.88;10.55;;;665.90;2432.00;;;;;;5080202;28;20129;-76
2023/07/01 07:12:51;;;;;;;12.73;9.85;;;665.90;2432.00;;;;;;5084469;28;20568;-75
2023/07/01 07:15:16;;;;;;;14.10;10.35;;;666.00;2432.00;;;;;;5078286;28;20102;-75
2023/07/01 07:17:42;;;;;;;14.60;9.93;;;666.00;2432.00;;;;;;5084580;28;20028;-73
2023/07/01 07:20:08;;;;;;;13.52;10.13;;;;;;;;;;5085094;28;20422;-74
2023/07/01 07:22:34;;;;;;;14.98;11.57;;;666.20;2432.00;;;;;;5078753;28;20036;-74
2023/07/01 07:25:00;;;;;;;15.38;10.63;;;666.30;2432.00;;;;;;5083103;28;20058;-75
2023/07/01 07:27:26;;;;;;;12.13;9.65;;;666.40;2432.00;;;;;;5080497;28;20028;-74
2023/07/01 07:29:51;;;;;;;18.40;9.95;;;666.50;2432.00;;;;;;5082085;28;20071;-75
2023/07/01 07:32:17;;;;;;;18.33;10.40;;;691.20;2432.00;;;;;;5086701;28;20035;-75
2023/07/01 07:34:43;;;;;;;14.82;10.23;;;691.30;2432.00;;;;;;5076575;28;20427;-74
2023/07/01 07:37:08;;;;;;;14.10;9.32;;;691.40;2432.00;;;;;;5084511;28;20028;-73
2023/07/01 07:39:34;;;;;;;13.05;10.43;;;691.50;2432.00;;;;;;5089735;28;20052;-74
2023/07/01 07:42:00;;;;;;;11.88;9.63;;;691.60;2432.00;;;;;;5077027;28;20033;-75
2023/07/01 07:44:26;;;;;;;15.70;9.10;;;691.60;2432.00;;;;;;5075845;28;20021;-74
2023/07/01 07:46:51;;;;;;;14.27;9.25;;;691.70;2432.00;;;;;;5080368;28;20043;-74
2023/07/01 07:49:17;;;;;;;11.18;8.88;;;691.70;2432.00;;;;;;5082874;28;20510;-75
2023/07/01 07:51:43;;;;;;;11.38;8.75;;;691.90;2355.20;;;;;;5081640;28;20035;-75
2023/07/01 07:54:09;;;;;;;11.88;9.65;;;691.80;2380.80;;;;;;5075853;28;20024;-74
2023/07/01 07:56:35;;;;;;;15.70;9.85;;;691.70;2432.00;;;;;;5077718;28;20505;-75
2023/07/01 07:59:00;;;;;;;14.43;9.20;;;691.90;2432.00;;;;;;5081733;28;20025;-74
2023/07/01 08:01:26;;;;;;;14.35;8.90;;;692.00;2380.80;;;;;;5086126;28;20016;-74
2023/07/01 08:03:51;;;;;;;10.65;9.05;;;692.00;2355.20;;;;;;5076992;28;20028;-75
2023/07/01 08:06:17;;;;;;;12.45;9.18;;;716.80;2432.00;;;;;;5084077;28;20103;-75
2023/07/01 08:08:43;;;;;;;11.65;9.07;;;716.80;2432.00;;;;;;5085248;28;20548;-75
2023/07/01 08:11:09;;;;;;;12.38;9.10;;;716.80;2380.80;;;;;;5060283;28;20041;-75
2023/07/01 08:13:34;;;;;;;12.50;9.02;;;716.80;2432.00;;;;;;5083553;28;20062;-76
2023/07/01 08:16:00;;;;;;;12.40;9.77;;;717.00;2432.00;;;;;;5081854;28;20541;-75
2023/07/01 08:18:26;;;;;;;13.15;9.35;;;717.20;2380.80;;;;;;5081408;28;20382;-75
2023/07/01 08:20:51;;;;;;;12.98;9.18;;;717.20;2380.80;;;;;;5080069;28;20020;-75
2023/07/01 08:23:17;;;;;;;14.27;10.00;;;717.30;2304.00;;;;;;5079264;28;20032;-75
2023/07/01 08:25:43;;;;;;;12.35;8.80;;;717.40;2252.80;;;;;;5079783;28;20020;-73
2023/07/01 08:28:09;;;;;;;15.15;9.77;;;717.40;2355.20;;;;;;5082229;28;20991;-75
2023/07/01 08:30:35;;;;;;;21.13;18.27;;;717.40;2432.00;;;;;;5076708;28;20073;-74
2023/07/01 08:33:00;;;;;;;12.45;10.00;;;717.30;2252.80;;;;;;5084364;28;20035;-75
2023/07/01 08:35:26;;;;;;;13.52;9.70;;;717.30;2278.40;;;;;;5080170;28;20020;-75
2023/07/01 08:37:52;;;;;;;12.68;10.30;;;717.40;2380.80;;;;;;5079471;28;20048;-76
2023/07/01 08:40:18;;;;;;;13.43;10.13;;;717.30;2406.40;;;;;;5078784;28;20025;-76
2023/07/01 08:42:48;;;;;;;14.38;10.05;;;717.40;2329.60;;;;;;5077121;28;20028;-77
2023/07/01 08:45:14;;;;;;;17.77;9.55;;;717.40;2278.40;;;;;;5079525;28;20094;-75
2023/07/01 08:47:40;;;;;;;13.13;9.77;;;717.40;2227.20;;;;;;5079226;28;20035;-76
2023/07/01 08:50:08;;;;;;;12.93;9.57;;;717.40;2252.80;;;;;;5078220;28;20024;-74
2023/07/01 08:52:46;;;;;;;13.60;9.50;;;717.50;2304.00;;;;;;5081126;28;20107;-75
2023/07/01 08:55:13;;;;;;;12.20;9.70;;;717.50;2304.00;;;;;;5079656;28;20037;-76
2023/07/01 08:57:39;;;;;;;13.07;9.68;;;717.70;2278.40;;;;;;5081571;28;20024;-76
2023/07/01 09:00:10;;;;;;;10.43;9.05;;;717.70;2278.40;;;;;;5077181;28;20042;-75
2023/07/01 09:02:36;;;;;;;11.20;8.98;;;717.70;2150.40;;;;;;5085648;28;20379;-74
2023/07/01 09:05:03;;;;;;;13.52;9.40;;;717.70;2124.80;;;;;;5078631;28;20052;-76
2023/07/01 09:07:29;;;;;;;15.65;8.80;;;717.70;2176.00;;;;;;5083827;28;20067;-76
2023/07/01 09:10:02;;;;;;;12.85;8.65;;;717.70;2099.20;;;;;;5075870;28;20088;-76
2023/07/01 09:12:32;;;;;;;9.15;7.82;;;717.70;2099.20;;;;;;5082983;28;20037;-75
2023/07/01 09:15:06;;;;;;;10.23;8.43;;;742.40;2124.80;;;;;;5081762;28;20121;-75
2023/07/01 09:17:34;;;;;;;8.80;7.90;;;742.40;2073.60;;;;;;5077118;28;20099;-75
2023/07/01 09:20:04;;;;;;;11.93;8.40;;;742.50;2048.00;;;;;;5083931;28;20062;-76
2023/07/01 09:22:30;;;;;;;10.32;8.25;;;;;;;;;;5075216;28;20486;-76
2023/07/01 09:24:56;;;;;;;10.65;7.75;;;742.60;2073.60;;;;;;5076627;28;20078;-75
2023/07/01 09:27:22;;;;;;;12.80;8.15;;;742.80;2022.40;;;;;;5085008;28;20036;-76
2023/07/01 09:29:48;;;;;;;12.18;7.85;;;742.90;1945.60;;;;;;5087173;28;20078;-76
2023/07/01 09:32:29;;;;;;;10.43;8.23;;;743.00;1945.60;;;;;;5079028;28;20040;-75
2023/07/01 09:34:57;;;;;;;11.57;8.10;;;743.10;2022.40;;;;;;5079459;28;20111;-74
2023/07/01 09:37:27;;;;;;;9.70;7.88;;;743.00;1868.80;;;;;;5077830;28;20012;-75
2023/07/01 09:39:52;;;;;;;13.40;8.85;;;743.10;1894.40;;;;;;5075647;28;20024;-76
2023/07/01 09:42:19;;;;;;;13.35;9.05;;;743.30;1868.80;;;;;;5075178;28;20537;-77
2023/07/01 09:45:07;;;;;;;11.07;8.27;;;768.10;1868.80;;;;;;5073309;28;20042;-76
2023/07/01 09:47:34;;;;;;;10.80;8.65;;;768.10;1920.00;;;;;;5083221;28;20374;-74
2023/07/01 09:50:01;;;;;;;16.73;7.70;;;768.30;1920.00;;;;;;5074961;28;20024;-77
2023/07/01 09:52:34;;;;;;;8.90;7.57;;;768.40;1766.40;;;;;;5073901;28;20032;-75
2023/07/01 09:55:02;;;;;;;11.80;7.88;;;768.50;1740.80;;;;;;5079396;28;20024;-75
2023/07/01 09:57:29;;;;;;;11.30;8.07;;;768.60;1715.20;;;;;;5075699;28;20024;-75
2023/07/01 09:59:55;;;;;;;11.93;7.57;;;768.60;1792.00;;;;;;5076231;28;20043;-75
2023/07/01 10:02:26;;;;;;;10.73;7.65;;;768.60;1715.20;;;;;;5078668;28;20024;-76
2023/07/01 10:04:52;;;;;;;10.85;7.28;;;793.60;1715.20;;;;;;5070845;28;20032;-76
2023/07/01 10:07:18;;;;;;;13.63;6.97;;;768.90;1715.20;;;;;;5077509;28;20013;-76
2023/07/01 10:09:45;;;;;;;10.18;7.15;;;793.70;1689.60;;;;;;5076232;28;20087;-76
2023/07/01 10:12:13;;;;;;;10.25;7.38;;;793.70;1664.00;;;;;;5075184;28;20378;-75
2023/07/01 10:14:42;;;;;;;11.52;7.65;;;794.00;1638.40;;;;;;5076083;28;20095;-75
2023/07/01 10:17:08;;;;;;;14.80;7.97;;;794.00;1715.20;;;;;;5074225;28;20078;-75
2023/07/01 10:19:35;;;;;;;9.70;7.72;;;794.20;1664.00;;;;;;5075876;28;20386;-75
2023/07/01 10:22:23;;;;;;;10.23;7.05;;;794.20;1612.80;;;;;;5077337;28;20054;-75
2023/07/01 10:25:11;;;;;;;12.23;6.80;;;794.30;1612.80;;;;;;5075218;28;20023;-74
2023/07/01 10:27:43;;;;;;;7.32;6.32;;;794.30;1612.80;;;;;;5074928;28;20052;-75
2023/07/01 10:30:12;;;;;;;12.65;7.20;;;794.40;1612.80;;;;;;5076886;28;20025;-74
2023/07/01 10:32:39;;;;;;;10.05;6.72;;;794.30;1664.00;;;;;;5076768;28;20051;-74
2023/07/01 10:35:04;;;;;;;8.85;7.60;;;794.40;1612.80;;;;;;5077040;28;20013;-73
2023/07/01 10:37:34;;;;;;;8.77;6.63;;;794.40;1612.80;;;;;;5074716;28;20085;-75
2023/07/01 10:40:07;;;;;;;12.18;7.20;;;794.50;1587.20;;;;;;5074802;28;20024;-74
2023/07/01 10:42:36;;;;;;;8.48;6.50;;;794.50;1587.20;;;;;;5075839;28;20029;-74
2023/07/01 10:45:10;;;;;;;10.57;6.30;;;819.30;1587.20;;;;;;5084014;28;20020;-74
2023/07/01 10:47:43;;;;;;;12.50;6.63;;;819.30;1484.80;;;;;;5080321;28;20047;-74
2023/07/01 10:50:10;;;;;;;10.57;6.10;;;819.50;1561.60;;;;;;5075688;28;20089;-74
2023/07/01 10:52:55;;;;;;;7.28;6.35;;;819.30;1484.80;;;;;;5073853;28;20119;-76
2023/07/01 10:55:40;;;;;;;6.60;5.53;;;819.60;1561.60;;;;;;5075569;28;20071;-77
2023/07/01 10:58:21;;;;;;;6.97;5.82;;;819.80;1510.40;;;;;;5080675;28;20021;-76
2023/07/01 11:00:48;;;;;;;9.90;6.07;;;819.80;1510.40;;;;;;5072056;28;20017;-75
2023/07/01 11:03:32;;;;;;;10.55;5.97;;;819.90;1459.20;;;;;;5077797;28;20026;-76
2023/07/01 11:05:59;;;;;;;9.32;6.93;;;819.90;1561.60;;;;;;5076761;28;20024;-76
2023/07/01 11:08:29;;;;;;;19.90;8.80;;;820.10;1510.40;;;;;;5077961;28;20473;-79
2023/07/01 11:10:55;;;;;;;10.35;6.72;;;820.10;1484.80;;;;;;5077597;28;20108;-76
2023/07/01 11:13:22;;;;;;;7.03;6.25;;;844.90;1510.40;;;;;;5083029;28;20048;-78
2023/07/01 11:16:04;;;;;;;13.30;6.75;;;820.10;1484.80;;;;;;5074930;28;20478;-75
2023/07/01 11:18:48;;;;;;;9.15;7.00;;;819.90;1484.80;;;;;;5077525;28;20043;-76
2023/07/01 11:21:22;;;;;;;9.23;6.68;;;820.00;1510.40;;;;;;5082673;28;20024;-73
2023/07/01 11:23:54;;;;;;;10.23;7.18;;;819.90;1459.20;;;;;;5078182;28;20023;-73
2023/07/01 11:26:22;;;;;;;29.95;7.82;;;820.10;1484.80;;;;;;5078712;28;20032;-73
2023/07/01 11:28:48;;;;;;;8.32;7.03;;;820.10;1433.60;;;;;;5080896;28;20024;-73
2023/07/01 11:31:15;;;;;;;8.07;6.18;;;844.90;1408.00;;;;;;5078007;28;20024;-75
2023/07/01 11:34:02;;;;;;;10.20;5.60;;;820.10;1408.00;;;;;;5078454;28;20020;-74
2023/07/01 11:36:38;;;;;;;7.13;6.03;;;819.80;1382.40;;;;;;5075498;28;20017;-74
2023/07/01 11:39:14;;;;;;;8.93;6.20;;;820.10;1408.00;;;;;;5081293;28;20028;-75
2023/07/01 11:42:03;;;;;;;7.85;6.03;;;820.10;1408.00;;;;;;5085531;28;20027;-73
2023/07/01 11:44:35;;;;;;;7.38;5.72;;;845.10;1408.00;;;;;;5075862;28;20029;-71
2023/07/01 11:47:01;;;;;;;8.45;5.90;;;845.30;1382.40;;;;;;5077559;28;20098;-72
2023/07/01 11:49:31;;;;;;;11.13;6.38;;;845.10;1356.80;;;;;;5076029;28;20059;-74
2023/07/01 11:51:59;;;;;;;8.30;6.20;;;845.20;1356.80;;;;;;5077800;28;20032;-75
2023/07/01 11:54:46;;;;;;;9.50;5.70;;;845.00;1382.40;;;;;;5080265;28;20032;-72
2023/07/01 11:57:16;;;;;;;8.70;5.57;;;845.10;1459.20;;;;;;5080976;28;20047;-72
2023/07/01 11:59:46;;;;;;;8.38;5.72;;;845.30;1356.80;;;;;;5077336;28;20025;-72
2023/07/01 12:02:12;;;;;;;9.40;6.70;;;845.00;1433.60;;;;;;5079404;28;20025;-72
2023/07/01 12:04:37;;;;;;;8.65;6.15;;;820.00;1356.80;;;;;;5080395;28;20045;-73
2023/07/01 12:07:15;;;;;;;13.05;6.63;;;819.80;1382.40;;;;;;5066922;28;20067;-73
2023/07/01 12:09:42;;;;;;;7.97;6.63;;;820.00;1382.40;;;;;;5085386;28;20078;-76
2023/07/01 12:12:10;;;;;;;12.85;7.18;;;870.40;1331.20;;;;;;5076706;28;20174;-73